Time;durP1;ratioP1;P1;durP2;ratioP2;P2;SDS_P1;SDS_P2;PMS_P1;PMS_P2;Temp;Humidity;BMP_temperature;BMP_pressure;BME280_temperature;BME280_humidity;BME280_pressure;Samples;Min_cycle;Max_cycle;Signal;HPM_P1;HPM_P2
2021/07/26 00:00:38;;;;;;;;;;;;;;;19.86;44.83;99839.66;5047191;28;20045;-71
2021/07/26 00:03:04;;;;;;;15.40;5.82;;;;;;;19.82;44.58;99836.75;5040710;28;20408;-72
2021/07/26 00:05:30;;;;;;;11.68;5.35;;;;;;;19.77;44.53;99832.22;5032285;28;20510;-71
2021/07/26 00:07:56;;;;;;;15.23;5.85;;;;;;;19.83;44.43;99832.84;5036459;28;20431;-72
2021/07/26 00:10:22;;;;;;;12.70;5.95;;;;;;;19.83;44.73;99828.09;5040148;28;20121;-71
2021/07/26 00:12:48;;;;;;;14.02;6.05;;;;;;;19.81;44.64;99824.84;5035253;28;20042;-72
2021/07/26 00:15:16;;;;;;;18.85;6.40;;;;;;;19.81;45.17;99830.41;5035751;28;20055;-72
2021/07/26 00:17:42;;;;;;;16.63;6.53;;;;;;;19.82;45.14;99825.66;5050302;28;20532;-72
2021/07/26 00:20:11;;;;;;;16.73;6.15;;;;;;;19.80;44.72;99830.72;5044884;28;20182;-72
2021/07/26 00:22:38;;;;;;;20.98;6.68;;;;;;;19.83;44.85;99830.88;5045407;28;20687;-72
2021/07/26 00:25:04;;;;;;;;;;;;;;;19.79;45.44;99837.41;5029947;28;20084;-72
2021/07/26 00:27:30;;;;;;;18.77;6.75;;;;;;;19.76;45.79;99838.09;5045296;28;19966;-71
2021/07/26 00:29:57;;;;;;;15.23;6.40;;;;;;;19.72;46.09;99842.69;5036698;28;20034;-71
2021/07/26 00:32:28;;;;;;;19.95;7.43;;;;;;;19.60;46.20;99838.69;5032963;28;20053;-71
2021/07/26 00:35:04;;;;;;;16.23;6.50;;;;;;;19.56;46.37;99832.97;5042740;28;20465;-71
2021/07/26 00:37:30;;;;;;;17.85;6.78;;;;;;;19.55;46.53;99836.13;5027599;28;20106;-71
2021/07/26 00:39:57;;;;;;;18.02;7.38;;;;;;;19.57;46.57;99833.81;5016651;28;20048;-72
2021/07/26 00:42:23;;;;;;;15.82;7.45;;;;;;;19.50;47.12;99841.81;5033546;28;20111;-72
2021/07/26 00:44:49;;;;;;;26.30;7.97;;;;;;;19.37;47.78;99844.53;5032815;28;20045;-72
2021/07/26 00:47:15;;;;;;;17.75;7.70;;;;;;;19.31;47.75;99845.03;5054350;28;20041;-72
2021/07/26 00:49:43;;;;;;;24.83;7.90;;;;;;;19.38;47.47;99846.16;5053400;28;20118;-73
2021/07/26 00:52:09;;;;;;;24.77;7.53;;;;;;;19.44;47.25;99845.94;5041840;28;20051;-72
2021/07/26 00:54:37;;;;;;;22.10;7.40;;;;;;;19.50;47.34;99841.81;5049132;28;20452;-72
2021/07/26 00:57:04;;;;;;;20.48;8.00;;;;;;;19.59;46.77;99845.38;5046355;28;20040;-72
2021/07/26 00:59:31;;;;;;;18.67;7.88;;;;;;;19.64;46.98;99844.38;5048553;28;20437;-73
2021/07/26 01:01:57;;;;;;;23.13;8.15;;;;;;;19.59;46.80;99842.59;5014499;28;20037;-72
2021/07/26 01:04:24;;;;;;;23.17;7.57;;;;;;;19.55;46.78;99848.00;5040460;28;20128;-72
2021/07/26 01:06:53;;;;;;;20.02;7.07;;;;;;;19.50;46.71;99845.44;5038793;28;20037;-72
2021/07/26 01:09:19;;;;;;;17.80;6.97;;;;;;;19.55;47.16;99847.19;5043522;28;20042;-72
2021/07/26 01:11:46;;;;;;;24.23;6.72;;;;;;;19.55;47.17;99841.66;5046353;28;20049;-72
2021/07/26 01:14:15;;;;;;;20.83;7.05;;;;;;;19.45;47.30;99842.84;5048004;28;20449;-72
2021/07/26 01:16:41;;;;;;;16.95;6.78;;;;;;;19.40;46.97;99831.94;5049856;28;20059;-72
2021/07/26 01:19:07;;;;;;;20.50;7.07;;;;;;;19.47;46.85;99845.28;5044015;28;20045;-72
2021/07/26 01:21:35;;;;;;;15.60;6.35;;;;;;;19.50;47.08;99848.19;5047962;28;20501;-72
2021/07/26 01:24:02;;;;;;;18.65;6.45;;;;;;;19.47;46.81;99843.31;5054005;28;20036;-72
2021/07/26 01:26:29;;;;;;;16.67;6.88;;;;;;;19.48;46.99;99849.66;5046799;28;20557;-72
2021/07/26 01:28:57;;;;;;;22.35;6.68;;;;;;;19.51;46.70;99854.53;5029818;28;20038;-72
2021/07/26 01:31:24;;;;;;;19.83;6.20;;;;;;;19.49;46.77;99846.56;5018434;28;20052;-71
2021/07/26 01:33:51;;;;;;;14.83;6.40;;;;;;;19.50;46.57;99850.16;5021930;28;20049;-72
2021/07/26 01:36:17;;;;;;;;;;;;;;;19.48;46.77;99858.00;5020965;28;20808;-72
2021/07/26 01:38:45;;;;;;;17.55;6.70;;;;;;;19.49;46.47;99845.75;5048091;28;19925;-71
2021/07/26 01:41:17;;;;;;;17.85;6.25;;;;;;;19.52;46.41;99853.41;5035543;28;20052;-72
2021/07/26 01:44:25;;;;;;;20.40;7.22;;;;;;;19.44;46.54;99860.63;5034231;28;20045;-72
2021/07/26 01:47:00;;;;;;;15.60;6.22;;;;;;;19.47;46.46;99853.59;5035780;28;20140;-70
2021/07/26 01:49:40;;;;;;;14.90;5.53;;;;;;;19.54;46.15;99862.22;5046717;28;20198;-71
2021/07/26 01:52:06;;;;;;;18.17;5.95;;;;;;;19.55;46.31;99855.53;5039386;28;20056;-70
2021/07/26 01:54:34;;;;;;;19.15;6.28;;;;;;;19.52;46.50;99857.00;5049091;28;20056;-71
2021/07/26 01:57:01;;;;;;;20.23;6.30;;;;;;;19.52;46.13;99861.75;5039653;28;20050;-71
2021/07/26 01:59:27;;;;;;;15.38;6.57;;;;;;;19.53;46.39;99857.81;5044290;28;20049;-71
2021/07/26 02:01:53;;;;;;;18.60;6.35;;;;;;;19.55;46.38;99872.16;5041008;28;20048;-72
2021/07/26 02:04:19;;;;;;;16.10;6.07;;;;;;;19.58;46.07;99874.25;5050187;28;20052;-71
2021/07/26 02:06:45;;;;;;;17.70;5.95;;;;;;;19.56;46.20;99868.22;5039602;28;20510;-72
2021/07/26 02:09:11;;;;;;;16.95;6.38;;;;;;;19.53;46.42;99866.94;5043499;28;20038;-71
2021/07/26 02:11:39;;;;;;;14.55;5.70;;;;;;;19.57;46.07;99867.09;5041074;28;20041;-71
2021/07/26 02:14:09;;;;;;;14.13;6.35;;;;;;;19.55;46.19;99863.84;5031676;28;20057;-72
2021/07/26 02:16:35;;;;;;;16.67;5.65;;;;;;;19.47;46.27;99881.31;5039528;28;20037;-72
2021/07/26 02:19:01;;;;;;;17.90;5.82;;;;;;;19.54;46.45;99879.66;5040502;28;20041;-72
2021/07/26 02:21:27;;;;;;;18.45;5.85;;;;;;;19.47;46.30;99875.78;5039398;28;20406;-71
2021/07/26 02:23:53;;;;;;;18.45;5.75;;;;;;;19.35;46.66;99868.97;5033910;28;20041;-71
2021/07/26 02:26:19;;;;;;;21.38;6.03;;;;;;;19.39;46.47;99869.94;5037983;28;20481;-72
2021/07/26 02:28:48;;;;;;;18.33;6.03;;;;;;;19.48;46.22;99874.63;5046765;28;20050;-71
2021/07/26 02:31:13;;;;;;;;;;;;;;;19.53;46.03;99880.78;5035497;28;20038;-72
2021/07/26 02:33:41;;;;;;;16.70;5.97;;;;;;;19.45;46.25;99880.84;5044249;28;19956;-72
2021/07/26 02:36:07;;;;;;;20.55;10.85;;;;;;;19.41;46.40;99878.75;5040476;28;20037;-71
2021/07/26 02:38:33;;;;;;;23.42;7.93;;;;;;;19.41;46.44;99884.28;5046718;28;20045;-71
2021/07/26 02:41:08;;;;;;;30.45;9.55;;;;;;;19.44;46.43;99877.28;5046016;28;20510;-71
2021/07/26 02:43:34;;;;;;;20.20;8.73;;;;;;;19.43;46.27;99878.38;5040972;28;20049;-70
2021/07/26 02:46:05;;;;;;;24.38;8.73;;;;;;;19.49;46.41;99882.63;5041248;28;20041;-71
2021/07/26 02:48:31;;;;;;;19.30;7.20;;;;;;;19.43;46.25;99883.94;5045185;28;21498;-71
2021/07/26 02:50:57;;;;;;;17.38;6.05;;;;;;;19.25;46.81;99892.31;5035638;28;20037;-72
2021/07/26 02:53:23;;;;;;;16.77;6.28;;;;;;;19.21;47.12;99894.13;5048008;28;20426;-71
2021/07/26 02:55:49;;;;;;;18.15;6.50;;;;;;;19.13;47.38;99893.03;5042714;28;20064;-71
2021/07/26 02:58:15;;;;;;;13.40;6.05;;;;;;;19.21;47.24;99891.34;5032296;28;20042;-71
2021/07/26 03:00:45;;;;;;;15.63;6.50;;;;;;;19.18;47.06;99892.03;5035179;28;20140;-71
2021/07/26 03:03:12;;;;;;;21.27;6.53;;;;;;;19.27;47.27;99894.78;5051323;28;20068;-72
2021/07/26 03:05:38;;;;;;;;;;;;;;;19.35;46.81;99896.69;5040395;28;20124;-70
2021/07/26 03:08:05;;;;;;;13.15;5.93;;;;;;;19.35;46.81;99898.66;5031119;28;19925;-71
2021/07/26 03:10:31;;;;;;;16.33;6.53;;;;;;;19.25;47.43;99897.84;5042775;28;20045;-72
2021/07/26 03:12:57;;;;;;;20.98;6.50;;;;;;;19.34;47.30;99905.34;5037583;28;20063;-72
2021/07/26 03:15:23;;;;;;;22.13;6.70;;;;;;;19.41;46.95;99898.13;5051504;28;20456;-71
2021/07/26 03:17:50;;;;;;;17.40;6.45;;;;;;;19.46;46.83;99893.56;5051387;28;20037;-71
2021/07/26 03:20:17;;;;;;;14.40;6.00;;;;;;;19.46;47.04;99899.09;5034831;28;20048;-71
2021/07/26 03:22:57;;;;;;;19.38;6.95;;;;;;;19.47;47.09;99900.72;5048587;28;20053;-71
2021/07/26 03:25:24;;;;;;;20.17;6.10;;;;;;;19.45;47.29;99901.06;5048369;28;20132;-73
2021/07/26 03:27:50;;;;;;;15.73;6.38;;;;;;;19.45;47.01;99898.31;5044211;28;20059;-71
2021/07/26 03:30:17;;;;;;;14.57;6.60;;;;;;;19.50;46.89;99900.06;5030709;28;20049;-72
2021/07/26 03:32:43;;;;;;;17.27;6.93;;;;;;;19.54;46.72;99899.06;5033949;28;20072;-71
2021/07/26 03:35:10;;;;;;;15.15;6.95;;;;;;;19.49;47.20;99899.25;5038573;28;20636;-71
2021/07/26 03:37:37;;;;;;;18.95;7.60;;;;;;;19.50;47.19;99903.66;5045684;28;20072;-71
2021/07/26 03:40:04;;;;;;;20.17;7.80;;;;;;;19.52;47.00;99903.34;5036302;28;20103;-71
2021/07/26 03:42:32;;;;;;;18.60;8.05;;;;;;;19.53;46.95;99899.41;5044298;28;20147;-70
2021/07/26 03:44:58;;;;;;;17.98;7.78;;;;;;;19.55;47.50;99897.91;5050027;28;20049;-71
2021/07/26 03:47:24;;;;;;;18.67;7.90;;;;;;;19.56;47.31;99901.50;5040508;28;20069;-71
2021/07/26 03:49:50;;;;;;;21.77;7.13;;;;;;;19.62;47.36;99902.13;5030305;28;20045;-71
2021/07/26 03:52:16;;;;;;;19.60;7.32;;;;;;;19.70;46.74;99899.31;5043012;28;20079;-70
2021/07/26 03:54:44;;;;;;;16.77;6.95;;;;;;;19.77;46.63;99898.78;5014738;28;20510;-72
2021/07/26 03:57:10;;;;;;;;;;;;;;;19.83;46.51;99897.44;5045138;28;20045;-72
2021/07/26 03:59:36;;;;;;;20.50;7.07;;;;;;;19.87;46.59;99902.31;5050754;28;20308;-72
2021/07/26 04:02:02;;;;;;;15.38;6.35;;;;;;;19.83;46.77;99899.41;5040137;28;20508;-71
2021/07/26 04:04:29;;;;;;;15.15;6.88;;;;;;;19.84;46.88;99903.81;5034388;28;20453;-72
2021/07/26 04:06:58;;;;;;;23.05;7.60;;;;;;;19.89;47.03;99898.06;5047683;28;20178;-73
2021/07/26 04:09:29;;;;;;;17.85;7.35;;;;;;;19.94;47.16;99899.88;5039274;28;20568;-71
2021/07/26 04:12:06;;;;;;;26.35;6.97;;;;;;;19.96;47.05;99895.59;5044467;28;20049;-73
2021/07/26 04:14:36;;;;;;;25.88;7.82;;;;;;;19.95;46.96;99890.41;5049188;28;20063;-71
2021/07/26 04:17:02;;;;;;;18.30;6.82;;;;;;;20.01;47.25;99893.78;5050074;28;20421;-71
2021/07/26 04:19:30;;;;;;;30.90;6.90;;;;;;;20.07;46.81;99898.81;5047625;28;20132;-70
2021/07/26 04:21:59;;;;;;;21.80;7.18;;;;;;;20.07;46.88;99896.03;5047342;28;20135;-71
2021/07/26 04:24:25;;;;;;;21.77;7.45;;;;;;;20.11;46.49;99894.19;5046683;28;20659;-71
2021/07/26 04:26:52;;;;;;;19.70;7.03;;;;;;;20.18;46.81;99896.44;5042855;28;20446;-72
2021/07/26 04:29:33;;;;;;;17.60;7.03;;;;;;;20.21;46.93;99898.53;5036380;28;20053;-72
2021/07/26 04:31:59;;;;;;;23.50;7.22;;;;;;;20.25;46.83;99888.38;5031576;28;20046;-72
2021/07/26 04:34:25;;;;;;;22.15;6.95;;;;;;;20.26;46.88;99894.75;5035427;28;20048;-71
2021/07/26 04:36:51;;;;;;;21.35;7.13;;;;;;;20.32;46.46;99898.16;5041408;28;20037;-72
2021/07/26 04:39:17;;;;;;;20.88;7.20;;;;;;;20.35;46.65;99892.69;5041951;28;20061;-72
2021/07/26 04:41:43;;;;;;;22.73;7.60;;;;;;;20.39;46.85;99892.84;5038256;28;20068;-72
2021/07/26 04:44:09;;;;;;;20.30;7.43;;;;;;;20.45;46.82;99888.72;5031037;28;20045;-71
2021/07/26 04:46:37;;;;;;;16.58;7.25;;;;;;;20.54;46.61;99885.88;5032018;28;20045;-72
2021/07/26 04:49:03;;;;;;;20.17;7.63;;;;;;;20.57;46.65;99884.38;5045098;28;20103;-72
2021/07/26 04:51:29;;;;;;;21.65;8.00;;;;;;;20.59;46.67;99877.31;5048077;28;20049;-71
2021/07/26 04:53:55;;;;;;;20.75;8.38;;;;;;;20.64;46.20;99879.09;5042853;28;20049;-72
2021/07/26 04:56:21;;;;;;;27.50;8.25;;;;;;;20.71;46.46;99884.09;5044543;28;20048;-71
2021/07/26 04:59:05;;;;;;;19.30;8.30;;;;;;;20.75;46.28;99888.59;5031028;28;20048;-72
2021/07/26 05:01:32;;;;;;;19.58;8.10;;;;;;;20.78;46.52;99878.78;5030502;28;20514;-72
2021/07/26 05:03:59;;;;;;;24.73;8.20;;;;;;;20.87;46.55;99878.72;5043844;28;20079;-72
2021/07/26 05:06:25;;;;;;;26.92;8.10;;;;;;;20.92;46.62;99876.53;5037470;28;20049;-72
2021/07/26 05:08:51;;;;;;;28.38;8.18;;;;;;;20.95;46.21;99884.19;5044993;28;20044;-72
2021/07/26 05:11:22;;;;;;;32.25;8.82;;;;;;;21.03;46.04;99893.56;5034382;28;20170;-72
2021/07/26 05:13:48;;;;;;;23.63;7.97;;;;;;;21.07;46.38;99885.38;5036846;28;20046;-72
2021/07/26 05:16:14;;;;;;;24.10;7.65;;;;;;;21.10;46.24;99877.16;5044841;28;20409;-72
2021/07/26 05:18:40;;;;;;;23.63;7.70;;;;;;;21.17;45.99;99889.69;5046433;28;20046;-72
2021/07/26 05:21:07;;;;;;;18.70;7.93;;;;;;;21.23;46.25;99879.97;5045498;28;20420;-70
2021/07/26 05:23:34;;;;;;;23.50;7.43;;;;;;;21.25;46.16;99872.09;5041646;28;20094;-72
2021/07/26 05:26:00;;;;;;;20.15;6.78;;;;;;;21.35;45.90;99885.53;5039357;28;20037;-83
2021/07/26 05:28:26;;;;;;;20.85;6.38;;;;;;;21.39;45.74;99882.88;5044369;28;20147;-72
2021/07/26 05:30:53;;;;;;;18.77;6.40;;;;;;;21.43;45.52;99874.66;5051049;28;20135;-72
2021/07/26 05:33:19;;;;;;;21.33;6.45;;;;;;;21.47;45.53;99876.41;5044552;28;20052;-72
2021/07/26 05:35:45;;;;;;;20.38;6.47;;;;;;;21.57;45.29;99886.25;5053611;28;20041;-72
2021/07/26 05:38:12;;;;;;;21.98;6.47;;;;;;;21.61;45.25;99872.44;5047614;28;20041;-72
2021/07/26 05:40:38;;;;;;;;;;;;;;;21.66;45.14;99870.28;5033138;28;20517;-71
2021/07/26 05:43:04;;;;;;;21.30;6.70;;;;;;;21.61;44.88;99864.09;5055730;28;19924;-72
2021/07/26 05:45:30;;;;;;;17.63;5.63;;;;;;;21.76;44.55;99882.09;5052613;28;20076;-71
2021/07/26 05:47:56;;;;;;;18.13;5.53;;;;;;;21.81;44.62;99881.84;5048468;28;20076;-72
2021/07/26 05:50:22;;;;;;;22.90;5.47;;;;;;;21.85;44.21;99874.41;5048431;28;20052;-71
2021/07/26 05:52:48;;;;;;;18.60;5.28;;;;;;;21.86;43.90;99875.25;5061442;28;20041;-72
2021/07/26 05:55:16;;;;;;;15.70;4.90;;;;;;;21.91;43.58;99884.16;5041280;28;20029;-72
2021/07/26 05:57:45;;;;;;;18.48;4.70;;;;;;;21.93;43.54;99873.50;5028901;28;20037;-72
2021/07/26 06:00:15;;;;;;;21.58;4.50;;;;;;;22.00;43.12;99869.28;5043097;28;20049;-69
2021/07/26 06:02:42;;;;;;;14.10;4.07;;;;;;;22.03;42.93;99872.19;5045495;28;20076;-72
2021/07/26 06:05:09;;;;;;;13.65;4.40;;;;;;;22.09;43.01;99872.78;5047549;28;20041;-71
2021/07/26 06:07:35;;;;;;;19.38;4.07;;;;;;;22.13;42.98;99870.91;5035422;28;20060;-72
2021/07/26 06:10:01;;;;;;;20.13;4.00;;;;;;;22.18;42.91;99859.53;5035359;28;20120;-71
2021/07/26 06:12:29;;;;;;;16.98;4.25;;;;;;;22.21;42.93;99866.34;5035769;28;20042;-71
2021/07/26 06:14:55;;;;;;;19.25;4.32;;;;;;;22.22;42.82;99859.63;5018013;28;20038;-71
2021/07/26 06:17:21;;;;;;;13.05;4.07;;;;;;;22.24;42.79;99869.25;5052193;28;20068;-71
2021/07/26 06:19:47;;;;;;;13.80;3.55;;;;;;;22.23;42.58;99862.06;5045545;28;20045;-71
2021/07/26 06:22:15;;;;;;;16.63;3.80;;;;;;;22.26;42.45;99863.34;5053235;28;20063;-71
2021/07/26 06:24:41;;;;;;;13.07;3.20;;;;;;;22.34;42.20;99876.28;5046244;28;20127;-72
2021/07/26 06:27:07;;;;;;;15.15;3.47;;;;;;;22.37;42.00;99863.66;5052128;28;20132;-72
2021/07/26 06:29:36;;;;;;;13.30;3.83;;;;;;;22.32;42.04;99859.13;5052111;28;20584;-71
2021/07/26 06:32:03;;;;;;;13.50;3.47;;;;;;;22.40;42.10;99871.28;5038533;28;20460;-71
2021/07/26 06:34:30;;;;;;;10.27;3.53;;;;;;;22.40;41.86;99860.16;5034801;28;20071;-71
2021/07/26 06:36:56;;;;;;;10.85;3.38;;;;;;;22.50;41.77;99872.78;5042769;28;20462;-70
2021/07/26 06:39:22;;;;;;;11.65;3.00;;;;;;;22.56;41.00;99867.78;5037051;28;20041;-71
2021/07/26 06:41:48;;;;;;;11.00;2.83;;;;;;;22.58;40.27;99866.25;5046501;28;20641;-72
2021/07/26 06:44:14;;;;;;;10.65;2.60;;;;;;;22.62;40.21;99864.38;5037609;28;20041;-73
2021/07/26 06:46:41;;;;;;;7.82;2.80;;;;;;;22.67;39.89;99878.03;5038643;28;20460;-71
2021/07/26 06:49:07;;;;;;;8.82;3.30;;;;;;;22.69;39.22;99876.88;5048078;28;20045;-72
2021/07/26 06:51:33;;;;;;;8.02;2.97;;;;;;;22.70;39.55;99865.38;5046405;28;20040;-71
2021/07/26 06:53:59;;;;;;;10.68;2.90;;;;;;;22.60;39.64;99861.16;5036819;28;20045;-71
2021/07/26 06:56:25;;;;;;;12.85;3.00;;;;;;;22.74;39.58;99868.28;5034905;28;20426;-72
2021/07/26 06:58:52;;;;;;;10.60;3.03;;;;;;;22.75;39.34;99867.13;5045557;28;20033;-71
2021/07/26 07:01:17;;;;;;;14.13;2.90;;;;;;;22.80;39.59;99864.88;5032351;28;20052;-71
2021/07/26 07:03:46;;;;;;;10.80;2.88;;;;;;;22.91;39.05;99867.13;5016967;28;20041;-72
2021/07/26 07:06:13;;;;;;;15.85;2.92;;;;;;;22.91;39.01;99855.97;5017939;28;20064;-71
2021/07/26 07:08:41;;;;;;;7.15;2.60;;;;;;;23.04;38.48;99868.69;5029786;28;20065;-72
2021/07/26 07:11:09;;;;;;;8.68;2.90;;;;;;;23.07;37.97;99872.75;5044134;28;20136;-72
2021/07/26 07:13:37;;;;;;;9.40;2.65;;;;;;;23.14;38.25;99884.06;5038679;28;20535;-72
2021/07/26 07:16:08;;;;;;;12.40;2.90;;;;;;;23.19;38.14;99874.63;5044435;28;20065;-71
2021/07/26 07:18:34;;;;;;;18.52;3.00;;;;;;;23.24;37.68;99879.94;5031446;28;20049;-72
2021/07/26 07:21:02;;;;;;;6.00;2.42;;;;;;;23.31;37.51;99873.75;5033094;28;20460;-73
2021/07/26 07:23:28;;;;;;;7.10;2.63;;;;;;;23.40;37.56;99884.72;5047676;28;20047;-71
2021/07/26 07:25:54;;;;;;;11.27;2.85;;;;;;;23.45;37.36;99879.69;5045224;28;20505;-71
2021/07/26 07:28:20;;;;;;;9.85;2.65;;;;;;;23.50;37.39;99887.81;5043852;28;20048;-71
2021/07/26 07:30:46;;;;;;;10.33;2.57;;;;;;;23.50;36.68;99884.19;5050757;28;20057;-73
2021/07/26 07:33:12;;;;;;;7.97;2.72;;;;;;;23.46;35.90;99886.88;5036006;28;20136;-72
2021/07/26 07:35:39;;;;;;;7.47;2.47;;;;;;;23.42;36.49;99872.06;5050890;28;20057;-72
2021/07/26 07:38:08;;;;;;;7.83;2.70;;;;;;;23.48;36.97;99875.38;5046415;28;20084;-72
2021/07/26 07:40:37;;;;;;;7.63;2.30;;;;;;;23.56;36.98;99879.16;5034982;28;20056;-72
2021/07/26 07:43:04;;;;;;;7.70;2.85;;;;;;;23.66;37.00;99884.19;5041880;28;20140;-72
2021/07/26 07:45:31;;;;;;;8.40;2.88;;;;;;;23.73;36.96;99875.19;5032886;28;20144;-72
2021/07/26 07:47:57;;;;;;;13.85;2.80;;;;;;;23.80;36.73;99872.53;5029160;28;20048;-73
2021/07/26 07:50:24;;;;;;;7.47;2.75;;;;;;;23.90;36.26;99877.56;5034126;28;20045;-72
2021/07/26 07:52:50;;;;;;;9.10;2.58;;;;;;;23.97;35.81;99874.13;5036091;28;20048;-73
2021/07/26 07:55:18;;;;;;;16.15;4.63;;;;;;;24.02;36.03;99871.09;5035626;28;20124;-73
2021/07/26 07:57:46;;;;;;;12.40;3.40;;;;;;;24.06;36.06;99887.91;5064691;28;20094;-73
2021/07/26 08:00:13;;;;;;;14.88;2.92;;;;;;;24.12;35.41;99877.25;5038248;28;20068;-71
2021/07/26 08:02:39;;;;;;;12.77;3.30;;;;;;;24.08;35.35;99886.38;5043399;28;20075;-74
2021/07/26 08:05:05;;;;;;;12.35;2.88;;;;;;;24.07;35.62;99886.75;5037188;28;20487;-73
2021/07/26 08:07:31;;;;;;;18.23;3.25;;;;;;;24.01;34.71;99885.38;5031605;28;20464;-73
2021/07/26 08:09:57;;;;;;;8.85;3.20;;;;;;;24.03;35.21;99869.91;5037049;28;20136;-72
2021/07/26 08:12:25;;;;;;;9.02;2.67;;;;;;;23.99;34.27;99882.13;5048941;28;20049;-72
2021/07/26 08:14:51;;;;;;;11.93;3.47;;;;;;;24.02;34.93;99875.81;5040450;28;20052;-74
2021/07/26 08:17:18;;;;;;;;;;;;;;;24.01;34.63;99872.22;5041249;28;20099;-74
2021/07/26 08:19:44;;;;;;;9.13;2.83;;;;;;;23.98;34.58;99866.56;5032165;28;19924;-73
2021/07/26 08:22:10;;;;;;;10.95;3.17;;;;;;;23.98;34.50;99886.91;5035495;28;20103;-72
2021/07/26 08:24:36;;;;;;;8.90;3.00;;;;;;;23.98;34.85;99881.34;5020005;28;20449;-74
2021/07/26 08:27:03;;;;;;;7.50;2.90;;;;;;;24.07;34.70;99881.97;5027827;28;20045;-73
2021/07/26 08:29:30;;;;;;;13.63;3.40;;;;;;;24.14;34.67;99872.94;5014953;28;20057;-73
2021/07/26 08:31:56;;;;;;;7.05;2.70;;;;;;;24.23;33.91;99878.31;5043321;28;20413;-75
2021/07/26 08:34:22;;;;;;;8.57;2.50;;;;;;;24.28;33.74;99871.63;5037745;28;20045;-75
2021/07/26 08:36:48;;;;;;;7.20;2.60;;;;;;;24.39;33.73;99878.25;5030450;28;20053;-74
2021/07/26 08:39:14;;;;;;;12.43;3.10;;;;;;;24.41;33.06;99889.88;5035198;28;20049;-74
2021/07/26 08:41:41;;;;;;;30.85;5.57;;;;;;;24.46;33.24;99874.78;5026067;28;20053;-73
2021/07/26 08:44:07;;;;;;;9.38;2.70;;;;;;;24.46;33.31;99867.22;5047846;28;20068;-73
2021/07/26 08:46:36;;;;;;;12.03;3.00;;;;;;;24.49;33.54;99868.47;5042951;28;20091;-73
2021/07/26 08:49:02;;;;;;;7.10;2.90;;;;;;;24.45;32.98;99878.78;5045222;28;20548;-74
2021/07/26 08:51:30;;;;;;;10.60;2.90;;;;;;;24.42;33.06;99871.91;5035512;28;20518;-74
2021/07/26 08:53:59;;;;;;;7.05;2.40;;;;;;;24.41;32.89;99866.69;5048515;28;20074;-74
2021/07/26 08:56:26;;;;;;;8.48;2.70;;;;;;;24.37;32.60;99872.22;5031556;28;20067;-73
2021/07/26 08:58:52;;;;;;;7.50;2.58;;;;;;;24.36;33.36;99870.59;5038856;28;20049;-74
2021/07/26 09:01:19;;;;;;;;;;;;;;;24.40;33.60;99873.47;5039733;28;20131;-73
2021/07/26 09:03:51;;;;;;;15.48;3.38;;;;;;;24.41;33.83;99875.88;5048130;28;19932;-72
2021/07/26 09:06:17;;;;;;;15.77;3.15;;;;;;;24.39;33.81;99867.06;5051005;28;20076;-72
2021/07/26 09:08:44;;;;;;;9.60;3.28;;;;;;;24.39;33.75;99872.66;5064847;28;20052;-73
2021/07/26 09:11:10;;;;;;;12.70;3.03;;;;;;;24.34;33.98;99878.53;5052862;28;20077;-74
2021/07/26 09:13:38;;;;;;;11.20;3.33;;;;;;;24.27;33.87;99868.00;5006293;28;20068;-73
2021/07/26 09:16:14;;;;;;;24.77;3.75;;;;;;;24.18;34.15;99862.63;5033714;28;20099;-73
2021/07/26 09:18:41;;;;;;;12.20;2.90;;;;;;;24.13;34.19;99864.94;5049482;28;20456;-72
2021/07/26 09:21:08;;;;;;;11.90;3.27;;;;;;;24.18;34.37;99861.84;5041663;28;20041;-72
2021/07/26 09:23:38;;;;;;;11.27;3.40;;;;;;;24.19;34.49;99855.88;5034936;28;20037;-70
2021/07/26 09:26:25;;;;;;;10.73;3.15;;;;;;;24.29;34.41;99856.47;5037267;28;20057;-68
2021/07/26 09:28:51;;;;;;;7.63;2.67;;;;;;;24.34;34.45;99857.00;5036918;28;20103;-69
2021/07/26 09:31:17;;;;;;;13.73;4.10;;;;;;;24.36;34.34;99853.84;5039334;28;20303;-68
2021/07/26 09:33:43;;;;;;;9.15;3.60;;;;;;;24.31;33.92;99860.53;5031088;28;20558;-68
2021/07/26 09:36:12;;;;;;;8.10;2.97;;;;;;;24.28;33.97;99858.47;5045080;28;20791;-68
2021/07/26 09:38:41;;;;;;;9.27;2.97;;;;;;;24.36;34.11;99856.63;5044169;28;20053;-68
2021/07/26 09:41:08;;;;;;;7.20;2.90;;;;;;;24.41;34.29;99856.34;5044638;28;20051;-68
2021/07/26 09:43:34;;;;;;;;;;;;;;;24.49;34.18;99860.09;5045284;28;20552;-67
2021/07/26 09:46:00;;;;;;;9.13;3.23;;;;;;;24.50;34.19;99847.72;5038063;28;19932;-67
2021/07/26 09:48:27;;;;;;;10.63;3.67;;;;;;;24.56;34.35;99851.81;5036373;28;20049;-68
2021/07/26 09:50:55;;;;;;;9.82;4.03;;;;;;;24.64;34.00;99847.19;5034784;28;20120;-69
2021/07/26 09:53:25;;;;;;;11.73;3.65;;;;;;;24.72;33.88;99853.72;5038158;28;20053;-68
2021/07/26 09:55:53;;;;;;;9.93;3.55;;;;;;;24.81;34.11;99843.16;5029335;28;20307;-69
2021/07/26 09:58:34;;;;;;;9.20;3.20;;;;;;;24.88;33.90;99842.47;5027408;28;20057;-68
2021/07/26 10:01:01;;;;;;;8.57;2.90;;;;;;;24.98;34.05;99841.88;5032355;28;20102;-68
2021/07/26 10:03:28;;;;;;;10.25;3.38;;;;;;;25.03;34.06;99840.72;5009989;28;20107;-68
2021/07/26 10:05:54;;;;;;;10.48;3.25;;;;;;;25.10;34.55;99837.25;5034553;28;20080;-67
2021/07/26 10:08:21;;;;;;;14.07;3.57;;;;;;;25.17;34.16;99834.59;5038840;28;20098;-68
2021/07/26 10:10:48;;;;;;;;;;;;;;;25.20;34.09;99840.22;5043158;28;20304;-68
2021/07/26 10:13:18;;;;;;;12.65;3.30;;;;;;;25.26;34.17;99843.53;5038482;28;19929;-68
2021/07/26 10:15:45;;;;;;;16.63;3.80;;;;;;;25.27;33.96;99833.94;5035911;28;20041;-76
2021/07/26 10:18:11;;;;;;;;;;;;;;;25.38;34.04;99830.53;5037946;28;20049;-68
2021/07/26 10:20:41;;;;;;;12.50;3.97;;;;;;;25.42;33.47;99828.59;5042675;28;19925;-67
2021/07/26 10:23:13;;;;;;;11.07;3.90;;;;;;;25.47;34.04;99825.47;5035978;28;20620;-68
2021/07/26 10:25:43;;;;;;;12.55;3.60;;;;;;;25.55;34.18;99835.63;5043046;28;20045;-67
2021/07/26 10:28:16;;;;;;;13.95;3.85;;;;;;;25.53;33.80;99821.19;5041815;28;20071;-67
2021/07/26 10:30:42;;;;;;;14.15;3.35;;;;;;;25.70;33.26;99825.47;5043974;28;20052;-67
2021/07/26 10:33:08;;;;;;;11.55;3.50;;;;;;;25.75;33.17;99835.50;5033258;28;20049;-67
2021/07/26 10:35:39;;;;;;;13.30;3.53;;;;;;;25.84;33.21;99830.44;5036624;28;20045;-69
2021/07/26 10:38:07;;;;;;;12.13;3.03;;;;;;;25.97;33.53;99828.22;5039969;28;20092;-68
2021/07/26 10:40:38;;;;;;;13.00;3.70;;;;;;;26.15;33.20;99813.66;5043528;28;20413;-68
2021/07/26 10:43:05;;;;;;;9.68;3.60;;;;;;;26.38;32.67;99819.16;5041140;28;20048;-67
2021/07/26 10:45:56;;;;;;;10.50;3.35;;;;;;;26.53;32.75;99810.88;5026911;28;20041;-68
2021/07/26 10:48:33;;;;;;;10.93;3.40;;;;;;;26.64;32.86;99817.44;5033099;28;20597;-68
2021/07/26 10:51:00;;;;;;;12.05;4.38;;;;;;;26.67;32.88;99815.84;5035938;28;20041;-68
2021/07/26 10:53:57;;;;;;;15.05;4.13;;;;;;;26.69;32.70;99811.47;5047613;28;20053;-68
2021/07/26 10:56:22;;;;;;;12.32;3.70;;;;;;;26.78;32.53;99810.34;5044430;28;20122;-69
2021/07/26 10:58:59;;;;;;;11.70;3.90;;;;;;;26.79;32.76;99803.56;5045681;28;20127;-68
2021/07/26 11:02:01;;;;;;;10.55;3.72;;;;;;;26.89;32.80;99803.69;5024679;28;20143;-68
2021/07/26 11:04:46;;;;;;;12.75;3.85;;;;;;;27.08;31.86;99817.88;5043332;28;20052;-68
2021/07/26 11:07:26;;;;;;;20.17;4.30;;;;;;;27.10;32.04;99807.06;5038740;28;20111;-68
2021/07/26 11:09:52;;;;;;;16.33;3.78;;;;;;;27.15;31.36;99812.31;5038469;28;20046;-68
2021/07/26 11:12:51;;;;;;;15.00;4.40;;;;;;;27.15;30.15;99809.50;5035362;28;20122;-78
2021/07/26 11:15:19;;;;;;;10.77;3.38;;;;;;;27.13;29.55;99800.66;5043018;28;20054;-70
2021/07/26 11:18:18;;;;;;;10.00;3.45;;;;;;;27.12;29.46;99807.47;5024505;28;20558;-68
2021/07/26 11:21:18;;;;;;;11.80;3.78;;;;;;;27.21;29.14;99796.75;5054062;28;20047;-68
2021/07/26 11:23:51;;;;;;;11.73;3.90;;;;;;;27.32;29.80;99794.00;5061477;28;20056;-68
2021/07/26 11:26:23;;;;;;;11.25;3.90;;;;;;;27.32;30.61;99791.22;5045731;28;20041;-69
2021/07/26 11:28:51;;;;;;;15.55;4.05;;;;;;;27.33;30.94;99795.63;5042089;28;20144;-68
2021/07/26 11:31:22;;;;;;;14.15;3.80;;;;;;;27.46;30.45;99790.47;5054235;28;20105;-68
2021/07/26 11:33:51;;;;;;;17.55;4.00;;;;;;;27.49;30.55;99784.13;5042492;28;20037;-67